sensor_id;sensor_type;location;lat;lon;timestamp;P1;durP1;ratioP1;P2;durP2;ratioP2
16472;SDS011;8347;52.486;13.432;2023-03-11T00:00:34;25.52;;;13.07;;
16472;SDS011;8347;52.486;13.432;2023-03-11T00:03:22;24.85;;;13.00;;
16472;SDS011;8347;52.486;13.432;2023-03-11T00:06:09;21.63;;;12.82;;
16472;SDS011;8347;52.486;13.432;2023-03-11T00:08:56;20.67;;;11.48;;
16472;SDS011;8347;52.486;13.432;2023-03-11T00:11:42;20.55;;;11.35;;
16472;SDS011;8347;52.486;13.432;2023-03-11T00:14:29;22.65;;;12.57;;
16472;SDS011;8347;52.486;13.432;2023-03-11T00:17:16;23.17;;;11.57;;
16472;SDS011;8347;52.486;13.432;2023-03-11T00:20:03;20.50;;;10.65;;
16472;SDS011;8347;52.486;13.432;2023-03-11T00:22:51;23.33;;;11.15;;
16472;SDS011;8347;52.486;13.432;2023-03-11T00:25:38;23.42;;;12.77;;
16472;SDS011;8347;52.486;13.432;2023-03-11T00:28:25;19.13;;;9.98;;
16472;SDS011;8347;52.486;13.432;2023-03-11T00:31:12;20.20;;;10.35;;
16472;SDS011;8347;52.486;13.432;2023-03-11T00:33:58;20.33;;;11.63;;
16472;SDS011;8347;52.486;13.432;2023-03-11T00:36:45;19.25;;;10.73;;
16472;SDS011;8347;52.486;13.432;2023-03-11T00:39:32;19.90;;;11.52;;
16472;SDS011;8347;52.486;13.432;2023-03-11T00:42:19;22.00;;;11.05;;
16472;SDS011;8347;52.486;13.432;2023-03-11T00:45:05;25.53;;;14.77;;
16472;SDS011;8347;52.486;13.432;2023-03-11T00:47:52;23.85;;;11.55;;
16472;SDS011;8347;52.486;13.432;2023-03-11T00:50:39;17.80;;;10.40;;
16472;SDS011;8347;52.486;13.432;2023-03-11T00:53:26;20.48;;;11.00;;
16472;SDS011;8347;52.486;13.432;2023-03-11T00:56:13;18.38;;;10.40;;
16472;SDS011;8347;52.486;13.432;2023-03-11T00:59:01;21.73;;;11.40;;
16472;SDS011;8347;52.486;13.432;2023-03-11T01:01:47;20.60;;;10.52;;
16472;SDS011;8347;52.486;13.432;2023-03-11T01:04:34;21.83;;;11.75;;
16472;SDS011;8347;52.486;13.432;2023-03-11T01:07:21;18.00;;;10.85;;
16472;SDS011;8347;52.486;13.432;2023-03-11T01:10:08;21.50;;;12.85;;
16472;SDS011;8347;52.486;13.432;2023-03-11T01:12:55;25.63;;;13.68;;
16472;SDS011;8347;52.486;13.432;2023-03-11T01:15:42;24.33;;;12.70;;
16472;SDS011;8347;52.486;13.432;2023-03-11T01:18:28;24.65;;;13.63;;
16472;SDS011;8347;52.486;13.432;2023-03-11T01:21:15;22.73;;;12.27;;
16472;SDS011;8347;52.486;13.432;2023-03-11T01:24:01;25.73;;;12.70;;
16472;SDS011;8347;52.486;13.432;2023-03-11T01:26:48;24.88;;;13.45;;
16472;SDS011;8347;52.486;13.432;2023-03-11T01:29:36;28.73;;;14.65;;
16472;SDS011;8347;52.486;13.432;2023-03-11T01:32:23;27.63;;;15.27;;
16472;SDS011;8347;52.486;13.432;2023-03-11T01:35:10;26.15;;;13.88;;
16472;SDS011;8347;52.486;13.432;2023-03-11T01:37:58;27.05;;;14.27;;
16472;SDS011;8347;52.486;13.432;2023-03-11T01:40:45;22.63;;;12.93;;
16472;SDS011;8347;52.486;13.432;2023-03-11T01:43:35;26.02;;;13.65;;
16472;SDS011;8347;52.486;13.432;2023-03-11T01:46:26;22.25;;;11.57;;
16472;SDS011;8347;52.486;13.432;2023-03-11T01:49:14;18.30;;;10.07;;
16472;SDS011;8347;52.486;13.432;2023-03-11T01:52:01;17.70;;;9.73;;
16472;SDS011;8347;52.486;13.432;2023-03-11T01:54:52;18.70;;;9.38;;
16472;SDS011;8347;52.486;13.432;2023-03-11T01:57:39;17.45;;;8.85;;
16472;SDS011;8347;52.486;13.432;2023-03-11T02:00:27;10.75;;;7.15;;
16472;SDS011;8347;52.486;13.432;2023-03-11T02:03:18;9.90;;;6.07;;
16472;SDS011;8347;52.486;13.432;2023-03-11T02:06:08;8.48;;;5.25;;
16472;SDS011;8347;52.486;13.432;2023-03-11T02:08:55;6.00;;;4.05;;
16472;SDS011;8347;52.486;13.432;2023-03-11T02:11:42;5.22;;;4.03;;
16472;SDS011;8347;52.486;13.432;2023-03-11T02:14:29;4.80;;;3.20;;
16472;SDS011;8347;52.486;13.432;2023-03-11T02:17:16;5.60;;;3.28;;
16472;SDS011;8347;52.486;13.432;2023-03-11T02:20:20;5.47;;;3.03;;
16472;SDS011;8347;52.486;13.432;2023-03-11T02:23:09;5.18;;;2.83;;
16472;SDS011;8347;52.486;13.432;2023-03-11T02:29:08;4.20;;;2.28;;
16472;SDS011;8347;52.486;13.432;2023-03-11T02:31:56;5.50;;;3.00;;
16472;SDS011;8347;52.486;13.432;2023-03-11T02:34:45;3.88;;;2.50;;
16472;SDS011;8347;52.486;13.432;2023-03-11T02:37:32;3.85;;;2.58;;
16472;SDS011;8347;52.486;13.432;2023-03-11T02:43:15;2.40;;;1.90;;
16472;SDS011;8347;52.486;13.432;2023-03-11T02:46:06;3.03;;;2.28;;
16472;SDS011;8347;52.486;13.432;2023-03-11T02:48:57;3.58;;;2.42;;
16472;SDS011;8347;52.486;13.432;2023-03-11T02:51:45;3.20;;;2.22;;
16472;SDS011;8347;52.486;13.432;2023-03-11T02:54:31;2.95;;;2.03;;
16472;SDS011;8347;52.486;13.432;2023-03-11T02:57:18;4.15;;;2.33;;
16472;SDS011;8347;52.486;13.432;2023-03-11T03:00:05;2.28;;;1.98;;
16472;SDS011;8347;52.486;13.432;2023-03-11T03:02:59;3.72;;;2.72;;
16472;SDS011;8347;52.486;13.432;2023-03-11T03:05:47;3.13;;;2.40;;
16472;SDS011;8347;52.486;13.432;2023-03-11T03:08:34;5.07;;;3.05;;
16472;SDS011;8347;52.486;13.432;2023-03-11T03:11:21;3.60;;;2.85;;
16472;SDS011;8347;52.486;13.432;2023-03-11T03:14:07;4.28;;;3.03;;
16472;SDS011;8347;52.486;13.432;2023-03-11T03:16:54;3.78;;;2.88;;
16472;SDS011;8347;52.486;13.432;2023-03-11T03:19:41;5.60;;;2.88;;
16472;SDS011;8347;52.486;13.432;2023-03-11T03:22:28;4.47;;;3.20;;
16472;SDS011;8347;52.486;13.432;2023-03-11T03:25:15;5.50;;;3.50;;
16472;SDS011;8347;52.486;13.432;2023-03-11T03:28:02;4.05;;;2.83;;
16472;SDS011;8347;52.486;13.432;2023-03-11T03:30:51;7.85;;;3.90;;
16472;SDS011;8347;52.486;13.432;2023-03-11T03:33:38;8.38;;;4.88;;
16472;SDS011;8347;52.486;13.432;2023-03-11T03:36:26;7.88;;;4.38;;
16472;SDS011;8347;52.486;13.432;2023-03-11T03:39:17;7.18;;;4.72;;
16472;SDS011;8347;52.486;13.432;2023-03-11T03:42:06;8.25;;;4.70;;
16472;SDS011;8347;52.486;13.432;2023-03-11T03:44:56;6.95;;;4.43;;
16472;SDS011;8347;52.486;13.432;2023-03-11T03:47:42;8.30;;;4.93;;
16472;SDS011;8347;52.486;13.432;2023-03-11T03:50:29;7.35;;;4.68;;
16472;SDS011;8347;52.486;13.432;2023-03-11T03:53:16;7.00;;;5.28;;
16472;SDS011;8347;52.486;13.432;2023-03-11T03:56:05;8.43;;;4.60;;
16472;SDS011;8347;52.486;13.432;2023-03-11T03:58:54;6.60;;;5.00;;
16472;SDS011;8347;52.486;13.432;2023-03-11T04:01:45;8.60;;;5.68;;
16472;SDS011;8347;52.486;13.432;2023-03-11T04:04:32;6.57;;;3.95;;
16472;SDS011;8347;52.486;13.432;2023-03-11T04:07:19;5.85;;;4.20;;
16472;SDS011;8347;52.486;13.432;2023-03-11T04:10:06;5.47;;;3.60;;
16472;SDS011;8347;52.486;13.432;2023-03-11T04:12:53;5.70;;;4.05;;
16472;SDS011;8347;52.486;13.432;2023-03-11T04:15:39;5.28;;;3.22;;
16472;SDS011;8347;52.486;13.432;2023-03-11T04:18:26;4.90;;;3.67;;
16472;SDS011;8347;52.486;13.432;2023-03-11T04:21:14;6.57;;;4.05;;
16472;SDS011;8347;52.486;13.432;2023-03-11T04:24:01;6.57;;;4.35;;
16472;SDS011;8347;52.486;13.432;2023-03-11T04:26:52;5.05;;;3.58;;
16472;SDS011;8347;52.486;13.432;2023-03-11T04:29:39;5.40;;;4.13;;
16472;SDS011;8347;52.486;13.432;2023-03-11T04:32:26;7.28;;;4.55;;
16472;SDS011;8347;52.486;13.432;2023-03-11T04:35:13;5.93;;;4.07;;
16472;SDS011;8347;52.486;13.432;2023-03-11T04:38:00;5.68;;;3.92;;
16472;SDS011;8347;52.486;13.432;2023-03-11T04:40:47;5.45;;;3.80;;
16472;SDS011;8347;52.486;13.432;2023-03-11T04:43:34;7.88;;;4.28;;
16472;SDS011;8347;52.486;13.432;2023-03-11T04:46:20;5.60;;;4.25;;
16472;SDS011;8347;52.486;13.432;2023-03-11T04:49:07;5.60;;;4.15;;
16472;SDS011;8347;52.486;13.432;2023-03-11T04:51:55;4.63;;;3.75;;
16472;SDS011;8347;52.486;13.432;2023-03-11T04:54:42;5.25;;;3.58;;
16472;SDS011;8347;52.486;13.432;2023-03-11T04:57:29;5.90;;;3.90;;
16472;SDS011;8347;52.486;13.432;2023-03-11T05:00:17;5.32;;;3.35;;
16472;SDS011;8347;52.486;13.432;2023-03-11T05:03:10;5.72;;;3.47;;
16472;SDS011;8347;52.486;13.432;2023-03-11T05:05:58;5.25;;;3.50;;
16472;SDS011;8347;52.486;13.432;2023-03-11T05:08:45;5.30;;;4.05;;
16472;SDS011;8347;52.486;13.432;2023-03-11T05:11:32;7.55;;;4.40;;
16472;SDS011;8347;52.486;13.432;2023-03-11T05:14:18;6.20;;;4.10;;
16472;SDS011;8347;52.486;13.432;2023-03-11T05:17:05;6.78;;;4.07;;
16472;SDS011;8347;52.486;13.432;2023-03-11T05:19:52;6.63;;;4.63;;
16472;SDS011;8347;52.486;13.432;2023-03-11T05:22:46;6.22;;;4.40;;
16472;SDS011;8347;52.486;13.432;2023-03-11T05:25:33;5.18;;;3.95;;
16472;SDS011;8347;52.486;13.432;2023-03-11T05:28:21;6.40;;;4.43;;
16472;SDS011;8347;52.486;13.432;2023-03-11T05:31:11;6.93;;;3.50;;
16472;SDS011;8347;52.486;13.432;2023-03-11T05:33:58;4.93;;;3.38;;
16472;SDS011;8347;52.486;13.432;2023-03-11T05:36:45;4.93;;;3.50;;
16472;SDS011;8347;52.486;13.432;2023-03-11T05:39:32;5.00;;;3.45;;
16472;SDS011;8347;52.486;13.432;2023-03-11T05:42:19;5.40;;;3.20;;
16472;SDS011;8347;52.486;13.432;2023-03-11T05:45:07;4.78;;;3.15;;
16472;SDS011;8347;52.486;13.432;2023-03-11T05:47:55;6.25;;;3.35;;
16472;SDS011;8347;52.486;13.432;2023-03-11T05:50:42;5.60;;;3.63;;
16472;SDS011;8347;52.486;13.432;2023-03-11T05:53:28;6.18;;;3.67;;
16472;SDS011;8347;52.486;13.432;2023-03-11T05:56:19;5.35;;;4.10;;
16472;SDS011;8347;52.486;13.432;2023-03-11T05:59:07;5.63;;;3.90;;
16472;SDS011;8347;52.486;13.432;2023-03-11T06:01:55;7.60;;;4.57;;
16472;SDS011;8347;52.486;13.432;2023-03-11T06:04:43;8.38;;;3.95;;
16472;SDS011;8347;52.486;13.432;2023-03-11T06:07:30;5.97;;;4.57;;
16472;SDS011;8347;52.486;13.432;2023-03-11T06:10:16;5.28;;;4.00;;
16472;SDS011;8347;52.486;13.432;2023-03-11T06:13:04;8.50;;;5.35;;
16472;SDS011;8347;52.486;13.432;2023-03-11T06:15:55;7.68;;;5.15;;
16472;SDS011;8347;52.486;13.432;2023-03-11T06:18:43;8.93;;;5.60;;
16472;SDS011;8347;52.486;13.432;2023-03-11T06:21:29;7.00;;;4.60;;
16472;SDS011;8347;52.486;13.432;2023-03-11T06:24:16;7.35;;;4.75;;
16472;SDS011;8347;52.486;13.432;2023-03-11T06:27:04;9.45;;;4.70;;
16472;SDS011;8347;52.486;13.432;2023-03-11T06:29:51;7.88;;;4.97;;
16472;SDS011;8347;52.486;13.432;2023-03-11T06:32:39;7.95;;;5.10;;
16472;SDS011;8347;52.486;13.432;2023-03-11T06:35:28;8.55;;;5.07;;
16472;SDS011;8347;52.486;13.432;2023-03-11T06:38:15;15.60;;;7.35;;
16472;SDS011;8347;52.486;13.432;2023-03-11T06:41:02;12.02;;;5.95;;
16472;SDS011;8347;52.486;13.432;2023-03-11T06:43:53;12.70;;;6.47;;
16472;SDS011;8347;52.486;13.432;2023-03-11T06:46:44;13.73;;;6.68;;
16472;SDS011;8347;52.486;13.432;2023-03-11T06:49:32;9.35;;;5.75;;
16472;SDS011;8347;52.486;13.432;2023-03-11T06:52:19;8.98;;;6.15;;
16472;SDS011;8347;52.486;13.432;2023-03-11T06:55:06;10.32;;;5.75;;
16472;SDS011;8347;52.486;13.432;2023-03-11T06:57:53;9.73;;;5.90;;
16472;SDS011;8347;52.486;13.432;2023-03-11T07:00:39;10.05;;;6.03;;
16472;SDS011;8347;52.486;13.432;2023-03-11T07:03:26;12.25;;;6.47;;
16472;SDS011;8347;52.486;13.432;2023-03-11T07:06:14;10.50;;;7.00;;
16472;SDS011;8347;52.486;13.432;2023-03-11T07:09:02;8.73;;;5.53;;
16472;SDS011;8347;52.486;13.432;2023-03-11T07:11:51;8.95;;;5.93;;
16472;SDS011;8347;52.486;13.432;2023-03-11T07:14:44;10.52;;;7.15;;
16472;SDS011;8347;52.486;13.432;2023-03-11T07:17:31;10.32;;;6.57;;
16472;SDS011;8347;52.486;13.432;2023-03-11T07:20:18;10.95;;;6.70;;
16472;SDS011;8347;52.486;13.432;2023-03-11T07:23:04;12.32;;;6.97;;
16472;SDS011;8347;52.486;13.432;2023-03-11T07:25:51;14.95;;;6.38;;
16472;SDS011;8347;52.486;13.432;2023-03-11T07:28:40;19.45;;;8.05;;
16472;SDS011;8347;52.486;13.432;2023-03-11T07:31:28;10.15;;;6.38;;
16472;SDS011;8347;52.486;13.432;2023-03-11T07:34:17;13.55;;;6.35;;
16472;SDS011;8347;52.486;13.432;2023-03-11T07:37:04;16.98;;;9.52;;
16472;SDS011;8347;52.486;13.432;2023-03-11T07:39:50;9.55;;;6.00;;
16472;SDS011;8347;52.486;13.432;2023-03-11T07:42:37;12.25;;;7.05;;
16472;SDS011;8347;52.486;13.432;2023-03-11T07:45:25;11.75;;;6.88;;
16472;SDS011;8347;52.486;13.432;2023-03-11T07:48:11;10.43;;;7.00;;
16472;SDS011;8347;52.486;13.432;2023-03-11T07:51:01;9.98;;;6.95;;
16472;SDS011;8347;52.486;13.432;2023-03-11T07:53:53;15.02;;;7.50;;
16472;SDS011;8347;52.486;13.432;2023-03-11T07:56:41;14.52;;;7.88;;
16472;SDS011;8347;52.486;13.432;2023-03-11T07:59:28;12.32;;;7.72;;
16472;SDS011;8347;52.486;13.432;2023-03-11T08:02:14;11.90;;;7.00;;
16472;SDS011;8347;52.486;13.432;2023-03-11T08:05:01;18.80;;;7.85;;
16472;SDS011;8347;52.486;13.432;2023-03-11T08:07:47;11.93;;;6.80;;
16472;SDS011;8347;52.486;13.432;2023-03-11T08:10:37;9.15;;;6.10;;
16472;SDS011;8347;52.486;13.432;2023-03-11T08:13:24;10.15;;;6.82;;
16472;SDS011;8347;52.486;13.432;2023-03-11T08:16:11;13.75;;;7.20;;
16472;SDS011;8347;52.486;13.432;2023-03-11T08:18:58;10.25;;;6.90;;
16472;SDS011;8347;52.486;13.432;2023-03-11T08:21:45;14.25;;;7.82;;
16472;SDS011;8347;52.486;13.432;2023-03-11T08:24:32;10.38;;;6.03;;
16472;SDS011;8347;52.486;13.432;2023-03-11T08:27:18;9.82;;;6.60;;
16472;SDS011;8347;52.486;13.432;2023-03-11T08:30:05;13.20;;;6.90;;
16472;SDS011;8347;52.486;13.432;2023-03-11T08:32:52;8.57;;;6.95;;
16472;SDS011;8347;52.486;13.432;2023-03-11T08:35:38;12.25;;;6.70;;
16472;SDS011;8347;52.486;13.432;2023-03-11T08:38:25;11.30;;;6.95;;
16472;SDS011;8347;52.486;13.432;2023-03-11T08:41:12;13.57;;;6.72;;
16472;SDS011;8347;52.486;13.432;2023-03-11T08:43:58;12.48;;;6.63;;
16472;SDS011;8347;52.486;13.432;2023-03-11T08:46:45;11.88;;;6.30;;
16472;SDS011;8347;52.486;13.432;2023-03-11T08:49:32;10.32;;;6.90;;
16472;SDS011;8347;52.486;13.432;2023-03-11T08:52:19;11.15;;;6.60;;
16472;SDS011;8347;52.486;13.432;2023-03-11T08:55:06;12.88;;;7.38;;
16472;SDS011;8347;52.486;13.432;2023-03-11T08:57:55;12.35;;;7.00;;
16472;SDS011;8347;52.486;13.432;2023-03-11T09:00:42;12.50;;;6.72;;
16472;SDS011;8347;52.486;13.432;2023-03-11T09:03:32;13.63;;;6.85;;
16472;SDS011;8347;52.486;13.432;2023-03-11T09:06:20;13.18;;;8.32;;
16472;SDS011;8347;52.486;13.432;2023-03-11T09:09:08;12.68;;;6.68;;
16472;SDS011;8347;52.486;13.432;2023-03-11T09:11:55;12.95;;;6.97;;
16472;SDS011;8347;52.486;13.432;2023-03-11T09:14:42;13.80;;;6.60;;
16472;SDS011;8347;52.486;13.432;2023-03-11T09:17:29;8.55;;;6.10;;
16472;SDS011;8347;52.486;13.432;2023-03-11T09:20:15;11.43;;;6.95;;
16472;SDS011;8347;52.486;13.432;2023-03-11T09:23:02;11.57;;;6.90;;
16472;SDS011;8347;52.486;13.432;2023-03-11T09:25:48;10.90;;;7.13;;
16472;SDS011;8347;52.486;13.432;2023-03-11T09:28:35;9.93;;;6.38;;
16472;SDS011;8347;52.486;13.432;2023-03-11T09:31:21;13.15;;;7.68;;
16472;SDS011;8347;52.486;13.432;2023-03-11T09:34:09;9.77;;;6.82;;
16472;SDS011;8347;52.486;13.432;2023-03-11T09:36:56;13.70;;;6.38;;
16472;SDS011;8347;52.486;13.432;2023-03-11T09:39:43;9.23;;;6.60;;
16472;SDS011;8347;52.486;13.432;2023-03-11T09:42:36;14.18;;;7.28;;
16472;SDS011;8347;52.486;13.432;2023-03-11T09:45:33;9.85;;;6.05;;
16472;SDS011;8347;52.486;13.432;2023-03-11T09:48:29;12.43;;;7.68;;
16472;SDS011;8347;52.486;13.432;2023-03-11T09:51:31;10.65;;;6.93;;
16472;SDS011;8347;52.486;13.432;2023-03-11T09:54:21;11.07;;;7.63;;
16472;SDS011;8347;52.486;13.432;2023-03-11T09:57:10;11.38;;;6.90;;
16472;SDS011;8347;52.486;13.432;2023-03-11T10:00:02;8.77;;;6.32;;
16472;SDS011;8347;52.486;13.432;2023-03-11T10:02:58;10.82;;;6.65;;
16472;SDS011;8347;52.486;13.432;2023-03-11T10:05:45;12.68;;;7.00;;
16472;SDS011;8347;52.486;13.432;2023-03-11T10:14:47;11.27;;;6.97;;
16472;SDS011;8347;52.486;13.432;2023-03-11T10:20:59;13.30;;;7.18;;
16472;SDS011;8347;52.486;13.432;2023-03-11T10:23:54;10.80;;;6.80;;
16472;SDS011;8347;52.486;13.432;2023-03-11T10:27:07;10.48;;;7.70;;
16472;SDS011;8347;52.486;13.432;2023-03-11T10:30:05;13.60;;;8.27;;
16472;SDS011;8347;52.486;13.432;2023-03-11T10:33:10;13.07;;;8.57;;
16472;SDS011;8347;52.486;13.432;2023-03-11T10:36:00;18.15;;;8.65;;
16472;SDS011;8347;52.486;13.432;2023-03-11T10:38:49;16.63;;;9.02;;
16472;SDS011;8347;52.486;13.432;2023-03-11T10:44:30;12.18;;;9.23;;
16472;SDS011;8347;52.486;13.432;2023-03-11T10:47:19;11.65;;;8.85;;
16472;SDS011;8347;52.486;13.432;2023-03-11T10:50:11;13.70;;;9.30;;
16472;SDS011;8347;52.486;13.432;2023-03-11T10:53:07;16.30;;;8.52;;
16472;SDS011;8347;52.486;13.432;2023-03-11T10:55:56;13.70;;;8.52;;
16472;SDS011;8347;52.486;13.432;2023-03-11T10:58:47;12.48;;;7.78;;
16472;SDS011;8347;52.486;13.432;2023-03-11T11:01:34;11.93;;;6.82;;
16472;SDS011;8347;52.486;13.432;2023-03-11T11:04:39;11.63;;;7.20;;
16472;SDS011;8347;52.486;13.432;2023-03-11T11:07:28;11.48;;;7.03;;
16472;SDS011;8347;52.486;13.432;2023-03-11T11:15:58;10.48;;;7.32;;
16472;SDS011;8347;52.486;13.432;2023-03-11T11:18:47;11.32;;;8.18;;
16472;SDS011;8347;52.486;13.432;2023-03-11T11:21:35;13.48;;;9.02;;
16472;SDS011;8347;52.486;13.432;2023-03-11T11:24:33;16.00;;;9.43;;
16472;SDS011;8347;52.486;13.432;2023-03-11T11:27:24;14.40;;;10.23;;
16472;SDS011;8347;52.486;13.432;2023-03-11T11:30:15;19.33;;;9.88;;
16472;SDS011;8347;52.486;13.432;2023-03-11T11:33:22;10.30;;;7.57;;
16472;SDS011;8347;52.486;13.432;2023-03-11T11:36:11;16.25;;;9.25;;
16472;SDS011;8347;52.486;13.432;2023-03-11T11:38:59;15.85;;;8.82;;
16472;SDS011;8347;52.486;13.432;2023-03-11T11:41:49;15.43;;;9.82;;
16472;SDS011;8347;52.486;13.432;2023-03-11T11:44:37;12.98;;;10.02;;
16472;SDS011;8347;52.486;13.432;2023-03-11T11:47:25;18.75;;;10.73;;
16472;SDS011;8347;52.486;13.432;2023-03-11T11:50:25;23.55;;;13.10;;
16472;SDS011;8347;52.486;13.432;2023-03-11T11:53:29;15.95;;;10.23;;
16472;SDS011;8347;52.486;13.432;2023-03-11T11:56:17;18.95;;;11.95;;
16472;SDS011;8347;52.486;13.432;2023-03-11T11:59:07;16.20;;;10.93;;
16472;SDS011;8347;52.486;13.432;2023-03-11T12:04:53;13.95;;;10.15;;
16472;SDS011;8347;52.486;13.432;2023-03-11T12:07:44;17.73;;;10.20;;
16472;SDS011;8347;52.486;13.432;2023-03-11T12:10:53;15.15;;;9.32;;
16472;SDS011;8347;52.486;13.432;2023-03-11T12:17:03;13.20;;;8.77;;
16472;SDS011;8347;52.486;13.432;2023-03-11T12:19:52;15.43;;;10.60;;
16472;SDS011;8347;52.486;13.432;2023-03-11T12:22:51;15.88;;;10.05;;
16472;SDS011;8347;52.486;13.432;2023-03-11T12:25:44;15.68;;;9.98;;
16472;SDS011;8347;52.486;13.432;2023-03-11T12:31:22;15.10;;;9.20;;
16472;SDS011;8347;52.486;13.432;2023-03-11T12:34:10;11.80;;;8.45;;
16472;SDS011;8347;52.486;13.432;2023-03-11T12:36:58;16.83;;;9.23;;
16472;SDS011;8347;52.486;13.432;2023-03-11T12:39:48;13.45;;;8.88;;
16472;SDS011;8347;52.486;13.432;2023-03-11T12:42:38;14.98;;;9.25;;
16472;SDS011;8347;52.486;13.432;2023-03-11T12:45:45;13.75;;;7.20;;
16472;SDS011;8347;52.486;13.432;2023-03-11T12:48:36;11.60;;;7.25;;
16472;SDS011;8347;52.486;13.432;2023-03-11T12:54:27;10.75;;;7.15;;
16472;SDS011;8347;52.486;13.432;2023-03-11T13:06:28;13.85;;;8.68;;
16472;SDS011;8347;52.486;13.432;2023-03-11T13:09:17;14.32;;;8.90;;
16472;SDS011;8347;52.486;13.432;2023-03-11T13:12:31;21.05;;;8.38;;
16472;SDS011;8347;52.486;13.432;2023-03-11T13:18:13;11.55;;;8.23;;
16472;SDS011;8347;52.486;13.432;2023-03-11T13:21:00;12.40;;;8.27;;
16472;SDS011;8347;52.486;13.432;2023-03-11T13:23:48;10.98;;;8.30;;
16472;SDS011;8347;52.486;13.432;2023-03-11T13:26:36;13.45;;;7.40;;
16472;SDS011;8347;52.486;13.432;2023-03-11T13:35:22;11.25;;;7.35;;
16472;SDS011;8347;52.486;13.432;2023-03-11T13:38:36;10.70;;;6.65;;
16472;SDS011;8347;52.486;13.432;2023-03-11T13:41:30;12.43;;;7.70;;
16472;SDS011;8347;52.486;13.432;2023-03-11T13:47:06;10.25;;;6.95;;
16472;SDS011;8347;52.486;13.432;2023-03-11T13:49:59;11.00;;;7.03;;
16472;SDS011;8347;52.486;13.432;2023-03-11T13:52:48;11.75;;;6.97;;
16472;SDS011;8347;52.486;13.432;2023-03-11T13:55:40;8.88;;;6.25;;
16472;SDS011;8347;52.486;13.432;2023-03-11T13:58:28;12.60;;;7.47;;
16472;SDS011;8347;52.486;13.432;2023-03-11T14:01:15;12.20;;;6.63;;
16472;SDS011;8347;52.486;13.432;2023-03-11T14:04:02;11.48;;;6.75;;
16472;SDS011;8347;52.486;13.432;2023-03-11T14:06:55;12.70;;;6.55;;
16472;SDS011;8347;52.486;13.432;2023-03-11T14:09:42;10.52;;;5.75;;
16472;SDS011;8347;52.486;13.432;2023-03-11T14:12:29;6.72;;;5.35;;
16472;SDS011;8347;52.486;13.432;2023-03-11T14:15:20;7.93;;;5.05;;
16472;SDS011;8347;52.486;13.432;2023-03-11T14:18:23;9.07;;;4.85;;
16472;SDS011;8347;52.486;13.432;2023-03-11T14:21:13;10.10;;;5.80;;
16472;SDS011;8347;52.486;13.432;2023-03-11T14:24:01;6.82;;;4.13;;
16472;SDS011;8347;52.486;13.432;2023-03-11T14:26:51;7.15;;;4.85;;
16472;SDS011;8347;52.486;13.432;2023-03-11T14:29:40;8.25;;;4.88;;
16472;SDS011;8347;52.486;13.432;2023-03-11T14:32:32;11.90;;;5.75;;
16472;SDS011;8347;52.486;13.432;2023-03-11T14:35:19;7.85;;;5.35;;
16472;SDS011;8347;52.486;13.432;2023-03-11T14:38:19;7.72;;;4.65;;
16472;SDS011;8347;52.486;13.432;2023-03-11T14:41:05;8.48;;;5.10;;
16472;SDS011;8347;52.486;13.432;2023-03-11T14:43:52;7.32;;;4.78;;
16472;SDS011;8347;52.486;13.432;2023-03-11T14:46:39;9.00;;;5.78;;
16472;SDS011;8347;52.486;13.432;2023-03-11T14:49:26;7.10;;;4.88;;
16472;SDS011;8347;52.486;13.432;2023-03-11T14:52:18;13.90;;;6.18;;
16472;SDS011;8347;52.486;13.432;2023-03-11T14:55:14;8.10;;;4.95;;
16472;SDS011;8347;52.486;13.432;2023-03-11T14:58:04;15.95;;;7.18;;
16472;SDS011;8347;52.486;13.432;2023-03-11T15:00:53;13.52;;;6.80;;
16472;SDS011;8347;52.486;13.432;2023-03-11T15:06:53;9.10;;;5.38;;
16472;SDS011;8347;52.486;13.432;2023-03-11T15:09:40;11.95;;;5.47;;
16472;SDS011;8347;52.486;13.432;2023-03-11T15:12:34;8.43;;;5.00;;
16472;SDS011;8347;52.486;13.432;2023-03-11T15:15:24;6.18;;;4.22;;
16472;SDS011;8347;52.486;13.432;2023-03-11T15:18:18;8.48;;;4.82;;
16472;SDS011;8347;52.486;13.432;2023-03-11T15:21:11;7.75;;;4.97;;
16472;SDS011;8347;52.486;13.432;2023-03-11T15:26:54;6.80;;;4.32;;
16472;SDS011;8347;52.486;13.432;2023-03-11T15:29:45;6.68;;;4.57;;
16472;SDS011;8347;52.486;13.432;2023-03-11T15:32:38;5.43;;;3.63;;
16472;SDS011;8347;52.486;13.432;2023-03-11T15:35:26;7.38;;;4.63;;
16472;SDS011;8347;52.486;13.432;2023-03-11T15:38:23;6.05;;;4.45;;
16472;SDS011;8347;52.486;13.432;2023-03-11T15:41:10;5.78;;;4.18;;
16472;SDS011;8347;52.486;13.432;2023-03-11T15:43:56;11.23;;;4.90;;
16472;SDS011;8347;52.486;13.432;2023-03-11T15:46:46;6.93;;;4.22;;
16472;SDS011;8347;52.486;13.432;2023-03-11T15:49:33;11.57;;;4.65;;
16472;SDS011;8347;52.486;13.432;2023-03-11T15:52:19;8.95;;;5.47;;
16472;SDS011;8347;52.486;13.432;2023-03-11T15:55:06;11.75;;;5.13;;
16472;SDS011;8347;52.486;13.432;2023-03-11T15:57:57;11.18;;;5.55;;
16472;SDS011;8347;52.486;13.432;2023-03-11T16:00:51;14.52;;;6.70;;
16472;SDS011;8347;52.486;13.432;2023-03-11T16:03:38;8.63;;;4.28;;
16472;SDS011;8347;52.486;13.432;2023-03-11T16:06:25;8.02;;;4.35;;
16472;SDS011;8347;52.486;13.432;2023-03-11T16:09:11;12.90;;;4.78;;
16472;SDS011;8347;52.486;13.432;2023-03-11T16:11:58;6.07;;;3.53;;
16472;SDS011;8347;52.486;13.432;2023-03-11T16:14:47;12.50;;;5.18;;
16472;SDS011;8347;52.486;13.432;2023-03-11T16:17:44;10.65;;;5.65;;
16472;SDS011;8347;52.486;13.432;2023-03-11T16:20:32;16.35;;;6.35;;
16472;SDS011;8347;52.486;13.432;2023-03-11T16:23:25;8.27;;;3.83;;
16472;SDS011;8347;52.486;13.432;2023-03-11T16:26:13;7.18;;;3.97;;
16472;SDS011;8347;52.486;13.432;2023-03-11T16:29:00;10.10;;;5.18;;
16472;SDS011;8347;52.486;13.432;2023-03-11T16:31:46;20.73;;;6.72;;
16472;SDS011;8347;52.486;13.432;2023-03-11T16:34:33;12.95;;;5.88;;
16472;SDS011;8347;52.486;13.432;2023-03-11T16:37:20;23.63;;;9.43;;
16472;SDS011;8347;52.486;13.432;2023-03-11T16:40:09;12.70;;;5.93;;
16472;SDS011;8347;52.486;13.432;2023-03-11T16:42:57;14.80;;;7.20;;
16472;SDS011;8347;52.486;13.432;2023-03-11T16:45:45;12.75;;;5.75;;
16472;SDS011;8347;52.486;13.432;2023-03-11T16:48:32;12.82;;;6.20;;
16472;SDS011;8347;52.486;13.432;2023-03-11T16:51:19;9.02;;;4.53;;
16472;SDS011;8347;52.486;13.432;2023-03-11T16:54:05;9.35;;;4.68;;
16472;SDS011;8347;52.486;13.432;2023-03-11T16:56:51;13.68;;;5.43;;
16472;SDS011;8347;52.486;13.432;2023-03-11T16:59:38;16.40;;;7.00;;
16472;SDS011;8347;52.486;13.432;2023-03-11T17:02:25;20.77;;;9.75;;
16472;SDS011;8347;52.486;13.432;2023-03-11T17:05:11;23.60;;;10.35;;
16472;SDS011;8347;52.486;13.432;2023-03-11T17:07:58;29.45;;;10.60;;
16472;SDS011;8347;52.486;13.432;2023-03-11T17:10:48;30.75;;;12.63;;
16472;SDS011;8347;52.486;13.432;2023-03-11T17:13:37;33.15;;;13.20;;
16472;SDS011;8347;52.486;13.432;2023-03-11T17:16:25;22.48;;;10.27;;
16472;SDS011;8347;52.486;13.432;2023-03-11T17:19:12;29.52;;;11.25;;
16472;SDS011;8347;52.486;13.432;2023-03-11T17:21:58;32.50;;;12.23;;
16472;SDS011;8347;52.486;13.432;2023-03-11T17:24:45;19.98;;;8.50;;
16472;SDS011;8347;52.486;13.432;2023-03-11T17:27:31;14.13;;;6.15;;
16472;SDS011;8347;52.486;13.432;2023-03-11T17:30:18;25.15;;;8.73;;
16472;SDS011;8347;52.486;13.432;2023-03-11T17:33:06;13.10;;;6.38;;
16472;SDS011;8347;52.486;13.432;2023-03-11T17:36:00;12.50;;;6.72;;
16472;SDS011;8347;52.486;13.432;2023-03-11T17:38:46;31.10;;;11.80;;
16472;SDS011;8347;52.486;13.432;2023-03-11T17:41:33;32.08;;;11.13;;
16472;SDS011;8347;52.486;13.432;2023-03-11T17:44:20;15.25;;;8.52;;
16472;SDS011;8347;52.486;13.432;2023-03-11T17:47:07;12.43;;;6.88;;
16472;SDS011;8347;52.486;13.432;2023-03-11T17:49:53;13.88;;;6.93;;